Time;durP1;ratioP1;P1;durP2;ratioP2;P2;SDS_P1;SDS_P2;PMS_P1;PMS_P2;Temp;Humidity;BMP_temperature;BMP_pressure;BME280_temperature;BME280_humidity;BME280_pressure;Samples;Min_cycle;Max_cycle;Signal;HPM_P1;HPM_P2
2022/03/10 00:00:13;;;;;;;22.00;11.80;;;;;;;-3.31;100.00;95089.09;5071612;28;20055;-46
2022/03/10 00:02:43;;;;;;;27.15;12.63;;;;;;;-3.33;100.00;95098.59;5074669;28;20486;-46
2022/03/10 00:05:20;;;;;;;27.45;12.82;;;;;;;-3.35;100.00;95097.94;5074656;28;20045;-47
2022/03/10 00:07:48;;;;;;;23.80;11.35;;;;;;;-3.41;100.00;95090.84;5073775;28;20440;-46
2022/03/10 00:10:15;;;;;;;20.30;11.27;;;;;;;-3.37;100.00;95100.59;5068430;28;20068;-46
2022/03/10 00:12:52;;;;;;;25.60;11.63;;;;;;;-3.42;100.00;95084.97;5073566;28;20059;-48
2022/03/10 00:15:25;;;;;;;21.77;11.50;;;;;;;-3.31;100.00;95101.81;5106019;28;20035;-49
2022/03/10 00:17:54;;;;;;;21.10;10.95;;;;;;;-3.25;100.00;95093.63;5092286;28;20096;-46
2022/03/10 00:20:21;;;;;;;22.10;11.38;;;;;;;-3.24;100.00;95094.41;5111429;28;20050;-46
2022/03/10 00:22:56;;;;;;;30.10;12.93;;;;;;;-3.28;100.00;95086.25;5106980;27;20040;-48
2022/03/10 00:25:24;;;;;;;20.17;10.75;;;;;;;-3.25;100.00;95080.09;5109341;28;20497;-47
2022/03/10 00:27:51;;;;;;;28.50;13.80;;;;;;;-3.35;100.00;95073.28;5108961;27;20489;-47
2022/03/10 00:30:18;;;;;;;26.30;13.45;;;;;;;-3.30;100.00;95073.63;5114646;27;20504;-49
2022/03/10 00:32:49;;;;;;;30.55;13.73;;;;;;;-3.34;100.00;95074.06;5120735;27;20050;-47
2022/03/10 00:35:19;;;;;;;30.38;13.93;;;;;;;-3.43;100.00;95062.97;5113695;27;20128;-47
2022/03/10 00:37:57;;;;;;;25.75;11.35;;;;;;;-3.46;100.00;95066.59;5117961;27;20477;-46
2022/03/10 00:40:28;;;;;;;27.63;11.30;;;;;;;-3.49;100.00;95073.72;5113209;27;20066;-47
2022/03/10 00:42:57;;;;;;;19.00;9.90;;;;;;;-3.58;100.00;95075.34;5112982;27;20139;-46
2022/03/10 00:45:25;;;;;;;20.00;9.60;;;;;;;-3.58;100.00;95067.72;5102073;27;20588;-46
2022/03/10 00:47:53;;;;;;;18.13;9.50;;;;;;;-3.57;100.00;95065.97;5114072;27;20054;-48
2022/03/10 00:50:20;;;;;;;50.13;18.40;;;;;;;-3.62;100.00;95073.19;5112358;27;20123;-45
2022/03/10 00:52:47;;;;;;;32.75;14.07;;;;;;;-3.58;100.00;95071.97;5109839;27;20134;-46
2022/03/10 00:55:17;;;;;;;22.30;12.60;;;;;;;-3.59;100.00;95063.53;5113528;27;20043;-47
2022/03/10 00:57:45;;;;;;;30.42;11.25;;;;;;;-3.59;100.00;95067.84;5115173;27;20043;-47
2022/03/10 01:00:13;;;;;;;21.17;11.57;;;;;;;-3.62;100.00;95063.00;5112350;27;20046;-47
2022/03/10 01:02:40;;;;;;;23.58;11.20;;;;;;;-3.63;100.00;95071.63;5112804;27;20051;-46
2022/03/10 01:05:08;;;;;;;29.48;11.85;;;;;;;-3.60;100.00;95066.22;5112365;27;20065;-47
2022/03/10 01:07:36;;;;;;;18.92;10.80;;;;;;;-3.55;100.00;95064.88;5112759;27;20505;-47
2022/03/10 01:10:05;;;;;;;10.25;6.72;;;;;;;-3.48;100.00;95065.13;5113191;27;20047;-46
2022/03/10 01:12:33;;;;;;;9.35;5.50;;;;;;;-3.40;100.00;95062.69;5112550;27;20129;-47
2022/03/10 01:15:01;;;;;;;20.10;6.35;;;;;;;-3.39;100.00;95043.91;5119799;27;20046;-47
2022/03/10 01:17:28;;;;;;;18.65;5.80;;;;;;;-3.25;100.00;95059.69;5112891;27;20128;-47
2022/03/10 01:19:54;;;;;;;12.27;6.95;;;;;;;-3.21;100.00;95055.94;5116117;27;20409;-47
2022/03/10 01:22:21;;;;;;;12.18;6.40;;;;;;;-3.18;100.00;95056.44;5113364;27;20066;-46
2022/03/10 01:24:48;;;;;;;12.73;5.43;;;;;;;-3.15;100.00;95063.00;5111713;27;20131;-48
2022/03/10 01:27:16;;;;;;;13.73;6.35;;;;;;;-3.10;100.00;95060.84;5121785;27;20035;-49
2022/03/10 01:29:43;;;;;;;22.58;6.40;;;;;;;-3.06;100.00;95064.72;5115844;27;20042;-47
2022/03/10 01:32:12;;;;;;;12.40;6.30;;;;;;;-3.10;100.00;95058.28;5115861;27;20896;-48
2022/03/10 01:34:39;;;;;;;12.25;6.80;;;;;;;-3.04;100.00;95065.38;5119934;27;20108;-47
2022/03/10 01:37:06;;;;;;;15.00;7.90;;;;;;;-3.00;100.00;95066.69;5113255;27;20122;-48
2022/03/10 01:39:33;;;;;;;13.23;7.57;;;;;;;-2.93;100.00;95065.19;5111843;27;20063;-48
2022/03/10 01:42:00;;;;;;;11.70;5.72;;;;;;;-2.90;100.00;95070.00;5110191;27;20472;-50
2022/03/10 01:44:27;;;;;;;11.13;6.38;;;;;;;-2.85;100.00;95061.91;5113769;27;20043;-48
2022/03/10 01:46:55;;;;;;;13.35;6.00;;;;;;;-2.84;100.00;95062.75;5111101;27;20074;-51
2022/03/10 01:49:22;;;;;;;20.13;6.85;;;;;;;-2.80;100.00;95064.06;5109933;27;20047;-47
2022/03/10 01:51:51;;;;;;;14.88;8.63;;;;;;;-2.83;100.00;95065.13;5116124;27;20103;-48
2022/03/10 01:54:18;;;;;;;13.38;6.93;;;;;;;-2.86;100.00;95067.16;5109950;27;20047;-46
2022/03/10 01:56:44;;;;;;;16.10;7.65;;;;;;;-2.90;100.00;95070.00;5112964;27;20166;-46
2022/03/10 01:59:12;;;;;;;9.57;4.43;;;;;;;-2.98;100.00;95072.44;5110352;27;20552;-46
2022/03/10 02:01:39;;;;;;;9.35;4.22;;;;;;;-3.06;100.00;95074.91;5117205;27;20457;-47
2022/03/10 02:04:06;;;;;;;12.98;5.28;;;;;;;-3.18;100.00;95063.28;5110347;27;20036;-49
2022/03/10 02:06:34;;;;;;;5.97;3.85;;;;;;;-3.23;100.00;95080.75;5110614;27;20047;-48
2022/03/10 02:11:51;;;;;;;7.82;3.67;;;;;;;-3.29;97.43;95080.34;5111876;27;20055;-46
2022/03/10 02:17:22;;;;;;;6.95;3.88;;;;;;;-3.41;95.22;95076.38;5109516;27;20120;-47
2022/03/10 02:19:58;;;;;;;8.10;4.88;;;;;;;-3.47;95.05;95076.94;5109586;27;20046;-48
2022/03/10 02:22:26;;;;;;;10.35;5.07;;;;;;;-3.51;94.67;95080.66;5114016;27;20408;-46
2022/03/10 02:24:54;;;;;;;8.20;3.95;;;;;;;-3.57;94.40;95081.22;5106843;27;20043;-46
2022/03/10 02:27:25;;;;;;;11.35;6.25;;;;;;;-3.61;94.34;95085.00;5115748;27;20055;-47
2022/03/10 02:29:57;;;;;;;10.30;5.60;;;;;;;-3.70;94.75;95082.31;5110731;27;20171;-47
2022/03/10 02:32:25;;;;;;;8.40;4.60;;;;;;;-3.79;93.18;95083.16;5112177;27;20477;-49
2022/03/10 02:34:52;;;;;;;13.82;4.57;;;;;;;-3.81;92.46;95089.31;5111115;27;20039;-47
2022/03/10 02:37:19;;;;;;;6.13;3.40;;;;;;;-3.87;92.56;95095.72;5115081;27;20058;-47
2022/03/10 02:39:46;;;;;;;10.50;3.63;;;;;;;-4.00;93.42;95095.22;5112580;27;20035;-47
2022/03/10 02:42:14;;;;;;;8.23;4.40;;;;;;;-4.00;93.88;95100.31;5110429;27;20174;-47
2022/03/10 02:44:45;;;;;;;10.63;4.53;;;;;;;-4.09;93.91;95097.66;5114746;27;20065;-47
2022/03/10 02:47:13;;;;;;;6.07;3.60;;;;;;;-4.19;93.37;95094.28;5109898;27;20055;-49
2022/03/10 02:49:41;;;;;;;8.25;3.80;;;;;;;-4.31;93.15;95098.69;5109868;27;20108;-46
2022/03/10 02:52:09;;;;;;;11.50;5.43;;;;;;;-4.43;93.10;95090.41;5119778;27;20065;-46
2022/03/10 02:54:42;;;;;;;5.78;3.35;;;;;;;-4.49;93.44;95090.91;5112550;27;20042;-46
2022/03/10 02:57:10;;;;;;;6.90;2.80;;;;;;;-4.47;94.18;95106.81;5113567;27;20047;-48
2022/03/10 02:59:37;;;;;;;5.55;2.92;;;;;;;-4.52;94.56;95105.63;5109779;27;20815;-48
2022/03/10 03:02:04;;;;;;;7.00;2.13;;;;;;;-4.61;94.78;95102.13;5113362;27;20043;-47
2022/03/10 03:04:31;;;;;;;6.30;3.70;;;;;;;-4.60;94.84;95108.81;5109878;27;20572;-48
2022/03/10 03:06:58;;;;;;;5.65;2.95;;;;;;;-4.64;94.72;95113.38;5110670;27;20048;-46
2022/03/10 03:09:25;;;;;;;2.55;1.88;;;;;;;-4.65;94.42;95110.94;5113801;27;20036;-46
2022/03/10 03:11:52;;;;;;;3.83;2.22;;;;;;;-4.65;93.90;95116.03;5111293;27;20050;-47
2022/03/10 03:14:23;;;;;;;6.28;2.65;;;;;;;-4.68;94.22;95111.19;5109989;27;20044;-46
2022/03/10 03:16:51;;;;;;;7.38;3.83;;;;;;;-4.69;94.77;95119.78;5110687;27;20512;-50
2022/03/10 03:19:18;;;;;;;8.27;3.30;;;;;;;-4.73;95.10;95109.06;5108861;27;20694;-47
2022/03/10 03:21:45;;;;;;;4.30;3.05;;;;;;;-4.73;95.22;95116.69;5109279;27;20047;-47
2022/03/10 03:24:12;;;;;;;8.05;5.05;;;;;;;-4.73;95.15;95124.31;5109486;27;20035;-47
2022/03/10 03:26:39;;;;;;;4.93;3.15;;;;;;;-4.78;95.21;95120.56;5109973;27;20043;-49
2022/03/10 03:29:06;;;;;;;7.53;3.10;;;;;;;-4.93;96.36;95110.75;5113967;27;20064;-47
2022/03/10 03:31:33;;;;;;;8.23;3.63;;;;;;;-4.95;96.66;95119.41;5109774;27;20039;-51
2022/03/10 03:34:00;;;;;;;7.28;4.38;;;;;;;-5.03;97.88;95112.44;5110017;27;20043;-47
2022/03/10 03:36:26;;;;;;;9.35;4.30;;;;;;;-5.00;98.16;95112.19;5112129;27;20040;-47
2022/03/10 03:38:53;;;;;;;7.78;3.88;;;;;;;-5.02;98.41;95108.97;5088853;27;20101;-46
2022/03/10 03:41:20;;;;;;;7.13;3.85;;;;;;;-4.99;98.38;95113.78;5110586;27;20031;-48
2022/03/10 03:43:47;;;;;;;7.07;3.10;;;;;;;-5.06;98.54;95112.69;5109932;27;20509;-50
2022/03/10 03:46:14;;;;;;;7.90;4.28;;;;;;;-5.03;98.09;95117.53;5110615;27;20044;-46
2022/03/10 03:48:40;;;;;;;7.18;3.45;;;;;;;-5.13;98.84;95124.28;5108741;27;20063;-49
2022/03/10 03:51:08;;;;;;;7.32;4.20;;;;;;;-5.11;98.50;95124.97;5109814;27;20047;-47
2022/03/10 03:53:35;;;;;;;3.90;2.50;;;;;;;-5.22;98.39;95120.75;5109091;27;20046;-47
2022/03/10 03:56:02;;;;;;;6.20;3.47;;;;;;;-5.36;98.11;95101.63;5109623;27;20039;-48
2022/03/10 03:58:28;;;;;;;10.85;4.15;;;;;;;-5.31;98.30;95124.06;5089811;28;20109;-47
2022/03/10 04:00:55;;;;;;;7.13;4.05;;;;;;;-5.34;98.71;95119.25;5108575;27;20039;-46
2022/03/10 04:03:22;;;;;;;7.63;4.30;;;;;;;-5.38;98.57;95128.88;5110100;27;20031;-47
2022/03/10 04:05:49;;;;;;;5.70;3.13;;;;;;;-5.42;98.26;95123.22;5107447;27;20046;-49
2022/03/10 04:08:16;;;;;;;7.82;3.80;;;;;;;-5.45;98.33;95132.84;5111968;27;20104;-46
2022/03/10 04:10:43;;;;;;;5.25;3.42;;;;;;;-5.49;98.73;95142.44;5113794;27;20053;-47
2022/03/10 04:13:10;;;;;;;3.75;2.22;;;;;;;-5.69;100.00;95141.50;5115421;27;20129;-47
2022/03/10 04:15:37;;;;;;;8.80;5.63;;;;;;;-5.75;100.00;95141.97;5109573;27;20035;-47
2022/03/10 04:18:04;;;;;;;6.40;3.85;;;;;;;-5.84;100.00;95133.38;5109293;27;20051;-46
2022/03/10 04:20:31;;;;;;;7.65;3.90;;;;;;;-5.79;100.00;95141.41;5108737;28;20066;-47
2022/03/10 04:22:58;;;;;;;6.75;3.83;;;;;;;-5.75;100.00;95141.97;5108233;27;20043;-50
2022/03/10 04:25:24;;;;;;;7.50;3.72;;;;;;;-5.62;100.00;95147.69;5109394;27;20051;-47
2022/03/10 04:27:53;;;;;;;6.30;3.88;;;;;;;-5.63;100.00;95151.16;5108415;28;20110;-46
2022/03/10 04:30:22;;;;;;;14.70;6.05;;;;;;;-5.77;100.00;95143.84;5107355;28;20039;-48
2022/03/10 04:32:49;;;;;;;6.82;3.53;;;;;;;-5.63;100.00;95156.22;5106484;28;20880;-46
2022/03/10 04:35:18;;;;;;;7.72;3.30;;;;;;;-5.66;100.00;95161.53;5107476;28;20115;-46
2022/03/10 04:37:49;;;;;;;6.30;3.67;;;;;;;-5.68;100.00;95167.69;5111327;28;20053;-46
2022/03/10 04:40:16;;;;;;;5.75;3.50;;;;;;;-5.69;100.00;95161.81;5109681;28;20047;-48
2022/03/10 04:42:43;;;;;;;6.75;3.47;;;;;;;-5.70;100.00;95170.34;5110987;28;20039;-47
2022/03/10 04:45:10;;;;;;;8.63;4.15;;;;;;;-5.63;100.00;95171.44;5110714;28;20066;-46
2022/03/10 04:47:38;;;;;;;7.05;4.22;;;;;;;-5.65;100.00;95178.38;5109266;28;20055;-47
2022/03/10 04:50:06;;;;;;;5.75;3.25;;;;;;;-5.57;98.88;95165.06;5109106;28;20066;-47
2022/03/10 04:52:33;;;;;;;3.13;2.47;;;;;;;-5.33;96.60;95177.53;5109021;28;20043;-48
2022/03/10 04:55:00;;;;;;;15.27;5.88;;;;;;;-5.19;93.68;95184.81;5113135;28;20044;-47
2022/03/10 04:57:27;;;;;;;9.38;5.55;;;;;;;-5.09;93.08;95194.25;5110048;28;20044;-46
2022/03/10 04:59:54;;;;;;;7.93;3.63;;;;;;;-5.03;90.66;95203.88;5107882;28;20050;-47
2022/03/10 05:02:22;;;;;;;7.53;4.18;;;;;;;-4.90;89.69;95204.47;5110239;28;20043;-47
2022/03/10 05:04:49;;;;;;;5.75;2.88;;;;;;;-4.86;89.44;95205.84;5110485;28;20055;-48
2022/03/10 05:07:16;;;;;;;12.80;7.43;;;;;;;-4.80;89.63;95205.34;5109532;28;20036;-46
2022/03/10 05:09:42;;;;;;;13.85;6.38;;;;;;;-4.84;88.22;95188.75;5109295;28;20070;-48
2022/03/10 05:12:10;;;;;;;43.58;10.85;;;;;;;-4.67;88.86;95219.56;5110346;28;20071;-46
2022/03/10 05:14:36;;;;;;;10.60;6.47;;;;;;;-4.57;88.85;95220.41;5108867;27;20071;-49
2022/03/10 05:17:03;;;;;;;14.20;7.05;;;;;;;-4.49;89.08;95220.56;5112012;27;20062;-46
2022/03/10 05:19:30;;;;;;;11.27;6.05;;;;;;;-4.42;88.22;95229.28;5112997;27;20050;-50
2022/03/10 05:21:57;;;;;;;10.52;5.88;;;;;;;-4.35;88.50;95228.78;5113589;27;20035;-51
2022/03/10 05:24:24;;;;;;;9.50;6.40;;;;;;;-4.30;88.28;95222.38;5114116;27;20039;-48
2022/03/10 05:26:51;;;;;;;9.10;6.50;;;;;;;-4.11;87.58;95236.88;5114194;27;20051;-46
2022/03/10 05:29:18;;;;;;;6.93;4.45;;;;;;;-4.03;87.64;95239.59;5115849;27;20510;-46
2022/03/10 05:31:49;;;;;;;8.23;4.25;;;;;;;-3.87;87.09;95239.09;5115701;27;20051;-46
2022/03/10 05:34:17;;;;;;;10.82;5.57;;;;;;;-3.69;86.19;95241.78;5116526;27;20419;-46
2022/03/10 05:36:43;;;;;;;8.98;5.68;;;;;;;-3.54;84.91;95241.38;5112495;27;21067;-48
2022/03/10 05:39:11;;;;;;;9.02;5.15;;;;;;;-3.43;84.88;95251.44;5115638;27;20531;-46
2022/03/10 05:41:40;;;;;;;5.53;3.50;;;;;;;-3.30;84.37;95249.41;5115439;27;20499;-47
2022/03/10 05:44:07;;;;;;;5.85;2.72;;;;;;;-3.12;81.43;95253.81;5111167;27;20043;-47
2022/03/10 05:46:34;;;;;;;4.50;2.60;;;;;;;-3.06;79.52;95253.31;5107018;27;20504;-47
2022/03/10 05:49:01;;;;;;;6.05;3.17;;;;;;;-3.02;78.34;95264.81;5102529;27;20559;-46
2022/03/10 05:51:28;;;;;;;17.60;8.98;;;;;;;-2.94;78.83;95264.13;5105625;27;20063;-50
2022/03/10 05:53:54;;;;;;;10.15;5.25;;;;;;;-2.79;79.55;95264.50;5111912;27;20035;-47
2022/03/10 05:56:21;;;;;;;7.18;4.32;;;;;;;-2.60;79.37;95264.44;5115086;27;20047;-47
2022/03/10 05:58:48;;;;;;;9.52;5.88;;;;;;;-2.53;77.82;95265.50;5111736;27;20058;-48
2022/03/10 06:01:15;;;;;;;7.57;4.47;;;;;;;-2.49;75.75;95266.03;5108705;27;20073;-49
2022/03/10 06:03:42;;;;;;;11.40;6.65;;;;;;;-2.38;74.26;95277.81;5109824;27;20048;-49
2022/03/10 06:06:12;;;;;;;7.47;4.15;;;;;;;-2.39;73.13;95281.31;5109017;27;20051;-49
2022/03/10 06:08:39;;;;;;;8.52;5.00;;;;;;;-2.38;74.95;95275.25;5113341;27;20479;-48
2022/03/10 06:11:07;;;;;;;8.23;5.43;;;;;;;-2.32;74.45;95277.28;5104688;27;20051;-47
2022/03/10 06:13:34;;;;;;;19.27;8.75;;;;;;;-2.28;75.22;95291.34;5110542;27;20401;-46
2022/03/10 06:16:01;;;;;;;18.52;9.35;;;;;;;-2.27;75.85;95290.38;5110407;27;20062;-49
2022/03/10 06:18:29;;;;;;;12.07;6.35;;;;;;;-2.32;75.50;95292.56;5110765;27;20059;-46
2022/03/10 06:20:56;;;;;;;5.95;3.50;;;;;;;-2.35;74.44;95292.84;5114577;27;20516;-46
2022/03/10 06:23:23;;;;;;;5.60;2.72;;;;;;;-2.46;74.42;95298.13;5089627;27;20232;-47
2022/03/10 06:25:50;;;;;;;10.80;4.40;;;;;;;-2.51;74.84;95303.63;5108986;27;20051;-47
2022/03/10 06:28:17;;;;;;;16.10;7.28;;;;;;;-2.53;73.90;95306.31;5111146;27;20132;-46
2022/03/10 06:30:43;;;;;;;16.10;8.43;;;;;;;-2.52;74.06;95307.94;5110822;27;20039;-46
2022/03/10 06:33:10;;;;;;;14.23;7.43;;;;;;;-2.56;74.08;95311.69;5112677;27;20054;-48
2022/03/10 06:35:37;;;;;;;11.68;7.25;;;;;;;-2.40;71.55;95317.97;5111653;27;20043;-47
2022/03/10 06:38:04;;;;;;;15.48;7.22;;;;;;;-2.31;69.52;95309.47;5113763;27;20072;-50
2022/03/10 06:40:31;;;;;;;4.43;2.50;;;;;;;-2.31;70.27;95319.69;5114839;27;20047;-47
2022/03/10 06:42:58;;;;;;;8.10;3.55;;;;;;;-2.14;68.97;95321.50;5111214;27;20066;-47
2022/03/10 06:45:25;;;;;;;4.68;2.63;;;;;;;-2.02;68.62;95328.97;5109760;27;20059;-46
2022/03/10 06:47:51;;;;;;;6.75;2.78;;;;;;;-1.88;69.04;95325.16;5110000;27;20445;-47
2022/03/10 06:50:19;;;;;;;23.23;8.43;;;;;;;-1.79;68.49;95330.22;5109628;27;20047;-47
2022/03/10 06:52:46;;;;;;;10.63;5.72;;;;;;;-1.77;66.06;95333.44;5111328;27;20051;-46
2022/03/10 06:55:16;;;;;;;5.85;3.17;;;;;;;-1.75;65.63;95331.56;5111834;27;20073;-49
2022/03/10 06:57:43;;;;;;;3.80;1.85;;;;;;;-1.75;67.24;95340.94;5111147;27;20186;-49
2022/03/10 07:00:10;;;;;;;2.55;1.65;;;;;;;-1.86;64.75;95334.28;5109262;27;20049;-47
2022/03/10 07:02:38;;;;;;;5.43;2.58;;;;;;;-1.86;65.02;95339.38;5118183;27;20466;-48
2022/03/10 07:05:07;;;;;;;3.47;1.35;;;;;;;-1.86;63.81;95339.38;5108475;27;20035;-47
2022/03/10 07:07:34;;;;;;;9.63;6.07;;;;;;;-1.83;65.02;95345.97;5105901;27;20061;-47
2022/03/10 07:10:01;;;;;;;5.35;3.38;;;;;;;-1.74;63.99;95338.25;5116441;27;20068;-48
2022/03/10 07:12:28;;;;;;;4.00;2.83;;;;;;;-1.69;62.39;95347.25;5102913;27;20051;-47
2022/03/10 07:14:55;;;;;;;6.88;4.00;;;;;;;-1.63;63.55;95349.25;5100884;27;20044;-47
2022/03/10 07:17:22;;;;;;;10.05;5.85;;;;;;;-1.54;62.32;95345.81;5103689;27;20443;-47
2022/03/10 07:19:52;;;;;;;7.55;5.43;;;;;;;-1.57;62.65;95343.56;5109065;27;20170;-46
2022/03/10 07:22:19;;;;;;;6.63;3.00;;;;;;;-1.56;60.67;95350.28;5110045;27;20072;-46
2022/03/10 07:24:46;;;;;;;4.07;2.38;;;;;;;-1.60;60.62;95354.06;5109745;27;20112;-51
2022/03/10 07:27:12;;;;;;;4.93;2.35;;;;;;;-1.60;60.49;95354.06;5119846;27;20051;-49
2022/03/10 07:29:39;;;;;;;7.95;4.45;;;;;;;-1.37;63.22;95339.94;5114925;27;20051;-47
2022/03/10 07:32:06;;;;;;;14.45;8.50;;;;;;;-1.13;63.74;95346.25;5115416;27;20039;-47
2022/03/10 07:34:34;;;;;;;10.80;7.93;;;;;;;-0.88;62.30;95349.00;5114469;27;20158;-48
2022/03/10 07:37:02;;;;;;;10.60;6.25;;;;;;;-0.65;61.69;95355.28;5108268;27;20036;-48
2022/03/10 07:39:28;;;;;;;13.95;9.00;;;;;;;-0.50;61.51;95352.19;5105950;27;20040;-48
2022/03/10 07:42:00;;;;;;;11.82;7.32;;;;;;;-0.31;61.51;95346.84;5107051;27;20105;-47
2022/03/10 07:44:27;;;;;;;10.98;5.28;;;;;;;-0.28;58.79;95359.38;5106041;27;20046;-46
2022/03/10 07:46:54;;;;;;;13.43;7.18;;;;;;;-0.06;62.04;95364.94;5103912;27;20048;-48
2022/03/10 07:49:20;;;;;;;12.93;8.15;;;;;;;0.07;59.12;95365.31;5109314;27;20066;-48
2022/03/10 07:51:47;;;;;;;6.22;4.25;;;;;;;0.27;59.95;95370.22;5106687;27;20044;-47
2022/03/10 07:54:14;;;;;;;11.13;7.43;;;;;;;0.22;57.10;95372.44;5103986;27;20040;-48
2022/03/10 07:56:41;;;;;;;27.45;15.35;;;;;;;0.32;59.26;95368.00;5108401;27;20067;-48
2022/03/10 07:59:08;;;;;;;8.00;5.38;;;;;;;0.38;57.13;95357.94;5106047;27;20041;-48
2022/03/10 08:01:34;;;;;;;8.77;5.07;;;;;;;0.66;58.89;95370.50;5105676;27;20580;-48
2022/03/10 08:04:02;;;;;;;7.65;4.55;;;;;;;0.80;54.98;95371.69;5107556;27;20046;-47
2022/03/10 08:06:29;;;;;;;15.88;8.20;;;;;;;0.97;58.45;95377.63;5103766;27;20421;-48
2022/03/10 08:08:55;;;;;;;11.23;8.18;;;;;;;1.25;57.80;95379.94;5105633;27;20036;-47
2022/03/10 08:11:22;;;;;;;10.82;5.90;;;;;;;1.15;56.37;95377.50;5110874;27;20556;-46
2022/03/10 08:13:49;;;;;;;23.60;7.70;;;;;;;1.24;56.26;95373.19;5104980;27;20064;-47
2022/03/10 08:16:16;;;;;;;6.38;3.63;;;;;;;1.13;56.52;95366.59;5107108;27;20044;-47
2022/03/10 08:18:43;;;;;;;13.25;6.65;;;;;;;1.19;57.85;95376.25;5109390;27;20054;-47
2022/03/10 08:21:11;;;;;;;18.15;10.43;;;;;;;1.19;58.01;95386.50;5114453;27;20055;-48
2022/03/10 08:23:38;;;;;;;8.73;3.33;;;;;;;0.83;51.06;95373.94;5114193;27;20035;-47
2022/03/10 08:26:04;;;;;;;66.07;32.55;;;;;;;1.10;54.43;95382.34;5108606;27;20577;-47
2022/03/10 08:28:33;;;;;;;14.00;7.97;;;;;;;1.27;51.26;95381.38;5103778;28;20047;-48
2022/03/10 08:31:01;;;;;;;5.50;3.47;;;;;;;1.41;51.87;95384.28;5100947;28;20786;-46
2022/03/10 08:33:28;;;;;;;2.85;1.75;;;;;;;1.63;51.05;95378.47;5108100;28;20047;-47
2022/03/10 08:35:55;;;;;;;7.65;3.47;;;;;;;1.81;48.70;95385.22;5110147;28;20459;-49
2022/03/10 08:38:22;;;;;;;7.80;4.65;;;;;;;1.59;46.87;95387.47;5101110;28;20491;-48
2022/03/10 08:40:49;;;;;;;3.65;1.92;;;;;;;1.45;44.58;95383.00;5101113;28;20058;-50
2022/03/10 08:43:16;;;;;;;3.55;2.00;;;;;;;1.41;46.98;95377.38;5099062;28;20057;-48
2022/03/10 08:45:43;;;;;;;4.18;2.28;;;;;;;1.16;49.75;95380.91;5100217;28;20047;-46
2022/03/10 08:48:10;;;;;;;9.57;4.68;;;;;;;1.54;49.05;95376.88;5102969;28;20059;-49
2022/03/10 08:50:36;;;;;;;5.57;3.17;;;;;;;1.76;49.44;95377.19;5110209;27;20039;-49
2022/03/10 08:53:03;;;;;;;4.63;2.10;;;;;;;1.77;47.36;95369.34;5099989;27;20051;-48
2022/03/10 08:55:30;;;;;;;5.40;3.60;;;;;;;1.86;47.77;95372.69;5103712;27;20145;-47
2022/03/10 08:57:57;;;;;;;5.38;2.80;;;;;;;1.99;49.05;95372.97;5106640;27;20112;-50
2022/03/10 09:00:24;;;;;;;2.95;1.60;;;;;;;2.10;44.46;95375.19;5090680;27;20039;-48
2022/03/10 09:02:56;;;;;;;9.98;4.45;;;;;;;1.96;45.73;95378.44;5103923;27;20465;-51
2022/03/10 09:05:24;;;;;;;5.38;2.22;;;;;;;1.72;45.15;95366.44;5105837;27;21825;-48
2022/03/10 09:07:51;;;;;;;4.25;2.50;;;;;;;1.65;45.10;95370.63;5110544;27;20047;-49
2022/03/10 09:10:17;;;;;;;3.20;1.52;;;;;;;1.39;43.82;95366.47;5106136;27;20058;-49
2022/03/10 09:12:44;;;;;;;3.92;2.17;;;;;;;1.07;50.20;95351.84;5109759;27;20055;-49
2022/03/10 09:15:16;;;;;;;2.60;1.48;;;;;;;1.30;45.06;95373.34;5107990;27;20424;-47
2022/03/10 09:17:44;;;;;;;3.35;1.70;;;;;;;1.20;43.89;95357.31;5110230;27;20432;-50
2022/03/10 09:20:13;;;;;;;2.97;1.60;;;;;;;1.37;44.65;95357.31;5111012;27;20059;-47
2022/03/10 09:22:41;;;;;;;3.60;1.65;;;;;;;1.38;43.66;95369.19;5115028;27;20043;-51
2022/03/10 09:25:09;;;;;;;4.45;1.80;;;;;;;1.46;42.71;95361.47;5112416;27;20035;-47
2022/03/10 09:27:37;;;;;;;1.52;1.23;;;;;;;1.34;40.24;95359.25;5115105;27;20069;-48
2022/03/10 09:30:05;;;;;;;9.52;3.72;;;;;;;1.45;45.14;95359.88;5114040;27;20051;-49
2022/03/10 09:32:37;;;;;;;3.33;1.77;;;;;;;1.41;41.48;95353.47;5110531;27;20087;-49
2022/03/10 09:35:06;;;;;;;3.63;1.70;;;;;;;1.49;44.56;95366.28;5111480;27;20047;-47
2022/03/10 09:37:33;;;;;;;2.15;1.60;;;;;;;1.32;41.75;95371.44;5111623;27;20049;-48
2022/03/10 09:40:01;;;;;;;4.00;2.35;;;;;;;1.21;41.46;95364.06;5110478;27;20046;-48
2022/03/10 09:42:30;;;;;;;2.53;1.90;;;;;;;1.27;44.48;95368.53;5110119;27;20046;-50
2022/03/10 09:44:59;;;;;;;4.10;1.60;;;;;;;1.56;44.94;95362.13;5111383;27;20096;-49
2022/03/10 09:47:27;;;;;;;5.35;2.53;;;;;;;1.71;43.74;95373.34;5103151;27;20417;-47
2022/03/10 09:49:54;;;;;;;3.72;1.73;;;;;;;1.87;44.54;95364.00;5113295;27;20047;-47
2022/03/10 09:52:23;;;;;;;6.35;3.00;;;;;;;2.09;44.38;95357.41;5115407;27;20055;-47
2022/03/10 09:54:50;;;;;;;3.75;2.58;;;;;;;2.26;43.91;95368.41;5108772;27;20035;-51
2022/03/10 09:57:17;;;;;;;2.53;1.52;;;;;;;2.30;44.43;95372.25;5092471;27;20062;-47
2022/03/10 09:59:51;;;;;;;4.18;2.05;;;;;;;1.76;45.47;95372.06;5118085;27;20054;-47
2022/03/10 10:02:18;;;;;;;2.67;1.63;;;;;;;1.56;45.50;95380.09;5110601;27;20046;-48
2022/03/10 10:04:48;;;;;;;4.10;2.28;;;;;;;1.41;46.74;95379.16;5107977;27;20044;-51
2022/03/10 10:07:21;;;;;;;3.90;1.98;;;;;;;1.56;44.47;95387.78;5110055;27;20051;-47
2022/03/10 10:09:54;;;;;;;4.95;2.22;;;;;;;1.61;43.90;95395.81;5110573;27;20059;-50
2022/03/10 10:12:29;;;;;;;5.53;2.70;;;;;;;1.98;43.79;95381.66;5111812;27;20424;-48
2022/03/10 10:14:58;;;;;;;5.97;2.40;;;;;;;2.18;46.08;95392.38;5111735;27;20420;-51
2022/03/10 10:17:30;;;;;;;4.10;2.17;;;;;;;2.32;42.55;95383.16;5104215;27;20151;-46
2022/03/10 10:20:17;;;;;;;4.45;2.03;;;;;;;2.46;43.35;95389.38;5108681;27;20610;-45
2022/03/10 10:22:47;;;;;;;6.47;1.88;;;;;;;2.01;42.64;95391.59;5107665;27;20094;-48
2022/03/10 10:25:20;;;;;;;3.03;2.08;;;;;;;1.70;42.61;95394.84;5105634;27;20071;-50
2022/03/10 10:27:47;;;;;;;2.00;1.33;;;;;;;1.20;44.06;95397.56;5106808;27;20071;-47
2022/03/10 10:30:15;;;;;;;3.30;2.10;;;;;;;1.10;44.22;95403.66;5110398;27;20051;-47
2022/03/10 10:32:41;;;;;;;3.20;2.08;;;;;;;0.80;46.47;95392.19;5109088;27;20071;-47
2022/03/10 10:35:20;;;;;;;8.45;3.17;;;;;;;0.54;47.69;95387.97;5107601;27;20060;-47
2022/03/10 10:37:52;;;;;;;3.38;1.70;;;;;;;0.37;50.88;95396.53;5111965;27;20104;-49
2022/03/10 10:40:26;;;;;;;5.68;2.78;;;;;;;0.01;53.86;95396.66;5106948;27;20120;-47
2022/03/10 10:42:55;;;;;;;2.72;1.33;;;;;;;-0.32;56.30;95401.59;5111136;27;20051;-48
2022/03/10 10:45:32;;;;;;;3.35;2.15;;;;;;;-0.45;56.11;95411.38;5110325;27;20047;-50
2022/03/10 10:48:03;;;;;;;2.50;1.73;;;;;;;-0.23;56.16;95413.47;5112738;27;20043;-47
2022/03/10 10:50:32;;;;;;;4.05;2.00;;;;;;;-0.23;55.59;95416.03;5110599;27;20043;-46
2022/03/10 10:52:59;;;;;;;3.42;1.95;;;;;;;-0.09;57.23;95406.19;5109938;27;20046;-48
2022/03/10 10:55:38;;;;;;;6.90;2.70;;;;;;;0.17;56.48;95409.56;5110193;27;20043;-47
2022/03/10 10:58:06;;;;;;;4.05;2.47;;;;;;;0.44;55.46;95407.78;5110476;27;20051;-49
2022/03/10 11:00:42;;;;;;;6.40;2.22;;;;;;;0.49;46.34;95410.69;5110378;27;20450;-51
2022/03/10 11:03:23;;;;;;;3.85;2.10;;;;;;;0.73;46.52;95396.34;5108598;27;20039;-48
2022/03/10 11:05:51;;;;;;;6.38;2.90;;;;;;;1.11;46.64;95389.06;5106309;27;20047;-46
2022/03/10 11:08:20;;;;;;;3.35;2.95;;;;;;;1.46;49.55;95398.25;5109729;27;20043;-47
2022/03/10 11:10:48;;;;;;;10.43;4.88;;;;;;;1.30;48.41;95393.91;5109842;27;20114;-48
2022/03/10 11:13:20;;;;;;;7.72;3.20;;;;;;;1.09;48.22;95390.97;5109830;27;20048;-48
2022/03/10 11:15:48;;;;;;;4.20;2.42;;;;;;;0.86;49.13;95386.44;5106764;27;20100;-47
2022/03/10 11:18:15;;;;;;;3.38;2.20;;;;;;;0.91;49.29;95394.47;5110368;27;20051;-46
2022/03/10 11:20:47;;;;;;;6.45;3.42;;;;;;;1.29;48.78;95387.13;5111869;27;20047;-48
2022/03/10 11:23:30;;;;;;;9.57;3.20;;;;;;;1.46;49.66;95402.53;5118501;27;20535;-48
2022/03/10 11:26:15;;;;;;;4.13;2.30;;;;;;;1.50;49.11;95388.44;5110976;27;20561;-50
2022/03/10 11:28:45;;;;;;;2.92;1.90;;;;;;;1.13;49.73;95392.25;5110146;27;20409;-48
2022/03/10 11:31:14;;;;;;;4.32;2.72;;;;;;;0.82;50.00;95385.16;5113786;27;20035;-47
2022/03/10 11:33:43;;;;;;;6.75;2.40;;;;;;;0.86;50.60;95386.44;5105081;27;20052;-48
2022/03/10 11:36:21;;;;;;;5.38;3.22;;;;;;;1.11;49.86;95389.06;5101699;27;20046;-51
2022/03/10 11:38:55;;;;;;;3.33;2.30;;;;;;;1.47;47.88;95388.75;5109736;27;20051;-47